sensor_id;sensor_type;location;lat;lon;timestamp;P1;P2;P0
74436;PMS7003;62868;52.360;30.424;2023-08-17T00:00:23;0.3;0.3;0
74436;PMS7003;62868;52.360;30.424;2023-08-17T00:05:31;0.3;0.3;0
74436;PMS7003;62868;52.360;30.424;2023-08-17T00:10:27;0.7;0.3;0
74436;PMS7003;62868;52.360;30.424;2023-08-17T00:15:51;0.7;0.7;0
74436;PMS7003;62868;52.360;30.424;2023-08-17T00:20:27;0;0;0
74436;PMS7003;62868;52.360;30.424;2023-08-17T00:25:23;0.7;0.3;0.3
74436;PMS7003;62868;52.360;30.424;2023-08-17T00:30:59;0.3;0.3;0.3
74436;PMS7003;62868;52.360;30.424;2023-08-17T00:35:51;0.7;0.3;0.3
74436;PMS7003;62868;52.360;30.424;2023-08-17T00:40:31;0.8;0.8;0.3
74436;PMS7003;62868;52.360;30.424;2023-08-17T00:45:23;0.7;0.7;0.3
74436;PMS7003;62868;52.360;30.424;2023-08-17T00:50:59;1;1;0.7
74436;PMS7003;62868;52.360;30.424;2023-08-17T00:55:23;0.3;0.3;0.3
74436;PMS7003;62868;52.360;30.424;2023-08-17T01:00:33;1;0.5;0.5
74436;PMS7003;62868;52.360;30.424;2023-08-17T01:05:49;1.7;1.3;1
74436;PMS7003;62868;52.360;30.424;2023-08-17T01:10:52;1;1;1
74436;PMS7003;62868;52.360;30.424;2023-08-17T01:15:59;1.3;0.3;0.3
74436;PMS7003;62868;52.360;30.424;2023-08-17T01:20:27;1.3;0.8;0.8
74436;PMS7003;62868;52.360;30.424;2023-08-17T01:25:27;1;0.3;0.3
74436;PMS7003;62868;52.360;30.424;2023-08-17T01:30:27;1.3;1;0.7
74436;PMS7003;62868;52.360;30.424;2023-08-17T01:36:01;0.3;0.3;0.3
74436;PMS7003;62868;52.360;30.424;2023-08-17T01:40:53;0.7;0.7;0.3
74436;PMS7003;62868;52.360;30.424;2023-08-17T01:45:59;1.3;0.7;0.7
74436;PMS7003;62868;52.360;30.424;2023-08-17T01:50:51;0.3;0.3;0.3
74436;PMS7003;62868;52.360;30.424;2023-08-17T01:55:49;1;0.5;0.5
74436;PMS7003;62868;52.360;30.424;2023-08-17T02:00:29;1;1;0.7
74436;PMS7003;62868;52.360;30.424;2023-08-17T02:05:35;0.7;0.7;0.7
74436;PMS7003;62868;52.360;30.424;2023-08-17T02:10:59;0.3;0.3;0.3
74436;PMS7003;62868;52.360;30.424;2023-08-17T02:15:43;0.5;0.3;0.3
74436;PMS7003;62868;52.360;30.424;2023-08-17T02:20:51;0.3;0;0
74436;PMS7003;62868;52.360;30.424;2023-08-17T02:25:57;0.3;0.3;0
74436;PMS7003;62868;52.360;30.424;2023-08-17T02:30:27;0.3;0;0
74436;PMS7003;62868;52.360;30.424;2023-08-17T02:35:27;0;0;0
74436;PMS7003;62868;52.360;30.424;2023-08-17T02:40:43;0.3;0;0
74436;PMS7003;62868;52.360;30.424;2023-08-17T02:45:43;0;0;0
74436;PMS7003;62868;52.360;30.424;2023-08-17T02:50:41;0;0;0
74436;PMS7003;62868;52.360;30.424;2023-08-17T02:55:35;0.5;0.3;0.3
74436;PMS7003;62868;52.360;30.424;2023-08-17T03:00:37;0.3;0.3;0
74436;PMS7003;62868;52.360;30.424;2023-08-17T03:05:23;0.7;0;0
74436;PMS7003;62868;52.360;30.424;2023-08-17T03:10:33;0;0;0
74436;PMS7003;62868;52.360;30.424;2023-08-17T03:15:33;0.3;0;0
74436;PMS7003;62868;52.360;30.424;2023-08-17T03:20:23;1.3;1;0.7
74436;PMS7003;62868;52.360;30.424;2023-08-17T03:25:43;0.3;0.3;0
74436;PMS7003;62868;52.360;30.424;2023-08-17T03:30:59;0.3;0.3;0
74436;PMS7003;62868;52.360;30.424;2023-08-17T03:35:27;0;0;0
74436;PMS7003;62868;52.360;30.424;2023-08-17T03:40:23;0;0;0
74436;PMS7003;62868;52.360;30.424;2023-08-17T03:45:51;0;0;0
74436;PMS7003;62868;52.360;30.424;2023-08-17T03:50:25;0;0;0
74436;PMS7003;62868;52.360;30.424;2023-08-17T03:55:23;0;0;0
74436;PMS7003;62868;52.360;30.424;2023-08-17T04:00:51;0;0;0
74436;PMS7003;62868;52.360;30.424;2023-08-17T04:06:03;0.3;0;0
74436;PMS7003;62868;52.360;30.424;2023-08-17T04:10:38;0;0;0
74436;PMS7003;62868;52.360;30.424;2023-08-17T04:15:27;0.3;0;0
74436;PMS7003;62868;52.360;30.424;2023-08-17T04:20:45;0;0;0
74436;PMS7003;62868;52.360;30.424;2023-08-17T04:25:23;1;1;0.7
74436;PMS7003;62868;52.360;30.424;2023-08-17T04:30:36;0.8;0.8;0.8
74436;PMS7003;62868;52.360;30.424;2023-08-17T04:35:41;0.3;0.3;0.3
74436;PMS7003;62868;52.360;30.424;2023-08-17T04:40:37;1.3;1.3;1.3
74436;PMS7003;62868;52.360;30.424;2023-08-17T04:45:23;1;0.8;0.5
74436;PMS7003;62868;52.360;30.424;2023-08-17T04:50:33;1.7;1;1
74436;PMS7003;62868;52.360;30.424;2023-08-17T04:55:59;2;2;1.3
74436;PMS7003;62868;52.360;30.424;2023-08-17T05:00:49;1.7;1.7;1
74436;PMS7003;62868;52.360;30.424;2023-08-17T05:05:35;0.5;0.5;0.3
74436;PMS7003;62868;52.360;30.424;2023-08-17T05:10:23;1;1;1
74436;PMS7003;62868;52.360;30.424;2023-08-17T05:15:57;2;1.7;1
74436;PMS7003;62868;52.360;30.424;2023-08-17T05:20:45;8;7.3;5.3
74436;PMS7003;62868;52.360;30.424;2023-08-17T05:25:33;7.5;6.8;4.8
74436;PMS7003;62868;52.360;30.424;2023-08-17T05:30:49;4.7;4;3.3
74436;PMS7003;62868;52.360;30.424;2023-08-17T05:35:53;4;3.3;2.3
74436;PMS7003;62868;52.360;30.424;2023-08-17T05:40:59;1.3;1;0.7
74436;PMS7003;62868;52.360;30.424;2023-08-17T05:45:49;0;0;0
74436;PMS7003;62868;52.360;30.424;2023-08-17T05:50:23;0.7;0.7;0.3
74436;PMS7003;62868;52.360;30.424;2023-08-17T05:55:23;0;0;0
74436;PMS7003;62868;52.360;30.424;2023-08-17T06:00:29;0;0;0
74436;PMS7003;62868;52.360;30.424;2023-08-17T06:06:01;0.3;0;0
74436;PMS7003;62868;52.360;30.424;2023-08-17T06:10:59;0.7;0.7;0.7
74436;PMS7003;62868;52.360;30.424;2023-08-17T06:16:01;0;0;0
74436;PMS7003;62868;52.360;30.424;2023-08-17T06:20:49;0.3;0.3;0.3
74436;PMS7003;62868;52.360;30.424;2023-08-17T06:25:27;0;0;0
74436;PMS7003;62868;52.360;30.424;2023-08-17T06:30:51;0;0;0
74436;PMS7003;62868;52.360;30.424;2023-08-17T06:35:59;0;0;0
74436;PMS7003;62868;52.360;30.424;2023-08-17T06:40:44;0.3;0;0
74436;PMS7003;62868;52.360;30.424;2023-08-17T06:45:35;0;0;0
74436;PMS7003;62868;52.360;30.424;2023-08-17T06:50:59;0;0;0
74436;PMS7003;62868;52.360;30.424;2023-08-17T06:55:23;0.3;0;0
74436;PMS7003;62868;52.360;30.424;2023-08-17T07:00:23;0.5;0.5;0.5
74436;PMS7003;62868;52.360;30.424;2023-08-17T07:05:23;0.3;0;0
74436;PMS7003;62868;52.360;30.424;2023-08-17T07:10:43;0.3;0.3;0.3
74436;PMS7003;62868;52.360;30.424;2023-08-17T07:15:43;0;0;0
74436;PMS7003;62868;52.360;30.424;2023-08-17T07:20:57;0;0;0
74436;PMS7003;62868;52.360;30.424;2023-08-17T07:25:37;0;0;0
74436;PMS7003;62868;52.360;30.424;2023-08-17T07:30:27;0.3;0.3;0.3
74436;PMS7003;62868;52.360;30.424;2023-08-17T07:35:23;0.3;0.3;0
74436;PMS7003;62868;52.360;30.424;2023-08-17T07:40:33;0;0;0
74436;PMS7003;62868;52.360;30.424;2023-08-17T07:45:52;1.3;1;1
74436;PMS7003;62868;52.360;30.424;2023-08-17T07:50:47;0.7;0.7;0.7
74436;PMS7003;62868;52.360;30.424;2023-08-17T07:55:59;0.5;0.5;0.5
74436;PMS7003;62868;52.360;30.424;2023-08-17T08:00:23;0;0;0
74436;PMS7003;62868;52.360;30.424;2023-08-17T08:05:27;0;0;0
74436;PMS7003;62868;52.360;30.424;2023-08-17T08:10:43;0.3;0;0
74436;PMS7003;62868;52.360;30.424;2023-08-17T08:15:59;0;0;0
74436;PMS7003;62868;52.360;30.424;2023-08-17T08:20:35;0;0;0
74436;PMS7003;62868;52.360;30.424;2023-08-17T08:25:51;0;0;0
74436;PMS7003;62868;52.360;30.424;2023-08-17T08:31:01;0;0;0
74436;PMS7003;62868;52.360;30.424;2023-08-17T08:35:59;0.5;0.5;0.3
74436;PMS7003;62868;52.360;30.424;2023-08-17T08:40:41;0;0;0
74436;PMS7003;62868;52.360;30.424;2023-08-17T08:45:59;0;0;0
74436;PMS7003;62868;52.360;30.424;2023-08-17T08:50:31;1.7;1.7;1.3
74436;PMS7003;62868;52.360;30.424;2023-08-17T08:55:37;2.5;2.5;2.5
74436;PMS7003;62868;52.360;30.424;2023-08-17T09:00:27;1;1;1
74436;PMS7003;62868;52.360;30.424;2023-08-17T09:05:51;0.3;0.3;0.3
74436;PMS7003;62868;52.360;30.424;2023-08-17T09:10:23;0.8;0.8;0.8
74436;PMS7003;62868;52.360;30.424;2023-08-17T09:15:27;1;0.7;0.3
74436;PMS7003;62868;52.360;30.424;2023-08-17T09:20:58;0.3;0.3;0.3
74436;PMS7003;62868;52.360;30.424;2023-08-17T09:25:52;0.3;0.3;0.3
74436;PMS7003;62868;52.360;30.424;2023-08-17T09:30:23;1.3;1;1
74436;PMS7003;62868;52.360;30.424;2023-08-17T09:35:42;0.3;0.3;0.3
74436;PMS7003;62868;52.360;30.424;2023-08-17T09:40:52;0;0;0
74436;PMS7003;62868;52.360;30.424;2023-08-17T09:45:31;0;0;0
74436;PMS7003;62868;52.360;30.424;2023-08-17T09:50:33;0;0;0
74436;PMS7003;62868;52.360;30.424;2023-08-17T09:55:49;2;1.3;1.3
74436;PMS7003;62868;52.360;30.424;2023-08-17T10:00:51;3;3;2.7
74436;PMS7003;62868;52.360;30.424;2023-08-17T10:06:01;1;0.7;0.7
74436;PMS7003;62868;52.360;30.424;2023-08-17T10:10:50;0.5;0.5;0.5
74436;PMS7003;62868;52.360;30.424;2023-08-17T10:15:45;0.3;0.3;0.3
74436;PMS7003;62868;52.360;30.424;2023-08-17T10:20:31;1;1;0.7
74436;PMS7003;62868;52.360;30.424;2023-08-17T10:26:00;1.3;1.3;0.7
74436;PMS7003;62868;52.360;30.424;2023-08-17T10:30:53;0.8;0.8;0.8
74436;PMS7003;62868;52.360;30.424;2023-08-17T10:36:00;1.3;1.3;1.3
74436;PMS7003;62868;52.360;30.424;2023-08-17T10:41:09;2;1.3;1.3
74436;PMS7003;62868;52.360;30.424;2023-08-17T10:45:43;0.7;0.7;0.7
74436;PMS7003;62868;52.360;30.424;2023-08-17T10:50:24;1;1;1
74436;PMS7003;62868;52.360;30.424;2023-08-17T10:55:49;1;1;1
74436;PMS7003;62868;52.360;30.424;2023-08-17T11:00:59;1;1;1
74436;PMS7003;62868;52.360;30.424;2023-08-17T11:05:44;0.5;0.5;0.3
74436;PMS7003;62868;52.360;30.424;2023-08-17T11:11:02;0.7;0.7;0.7
74436;PMS7003;62868;52.360;30.424;2023-08-17T11:16:00;1.7;1.7;1
74436;PMS7003;62868;52.360;30.424;2023-08-17T11:20:23;0.3;0.3;0.3
74436;PMS7003;62868;52.360;30.424;2023-08-17T11:25:23;0.5;0.5;0.5
74436;PMS7003;62868;52.360;30.424;2023-08-17T11:30:29;2;2;1.3
74436;PMS7003;62868;52.360;30.424;2023-08-17T11:36:00;0.7;0.7;0.7
74436;PMS7003;62868;52.360;30.424;2023-08-17T11:40:43;0.3;0.3;0.3
74436;PMS7003;62868;52.360;30.424;2023-08-17T11:45:43;0.5;0.5;0.5
74436;PMS7003;62868;52.360;30.424;2023-08-17T11:50:50;0.3;0.3;0
74436;PMS7003;62868;52.360;30.424;2023-08-17T11:55:23;0.3;0.3;0.3
74436;PMS7003;62868;52.360;30.424;2023-08-17T12:00:24;0.3;0.3;0
74436;PMS7003;62868;52.360;30.424;2023-08-17T12:05:30;0;0;0
74436;PMS7003;62868;52.360;30.424;2023-08-17T12:10:23;0;0;0
74436;PMS7003;62868;52.360;30.424;2023-08-17T12:15:34;0.7;0.3;0.3
74436;PMS7003;62868;52.360;30.424;2023-08-17T12:21:03;1;1;0.7
74436;PMS7003;62868;52.360;30.424;2023-08-17T12:25:40;0.8;0.8;0.8
74436;PMS7003;62868;52.360;30.424;2023-08-17T12:30:28;0.7;0.7;0.7
74436;PMS7003;62868;52.360;30.424;2023-08-17T12:35:38;0.7;0.3;0
74436;PMS7003;62868;52.360;30.424;2023-08-17T12:40:50;0.3;0.3;0.3
74436;PMS7003;62868;52.360;30.424;2023-08-17T12:45:51;0.8;0.8;0.3
74436;PMS7003;62868;52.360;30.424;2023-08-17T12:50:49;1.3;1.3;1.3
74436;PMS7003;62868;52.360;30.424;2023-08-17T12:55:58;1;0.7;0.7
74436;PMS7003;62868;52.360;30.424;2023-08-17T13:00:26;0.5;0.5;0.5
74436;PMS7003;62868;52.360;30.424;2023-08-17T13:05:24;0.7;0.7;0.7
74436;PMS7003;62868;52.360;30.424;2023-08-17T13:10:46;0.7;0.7;0.7
74436;PMS7003;62868;52.360;30.424;2023-08-17T13:15:26;0.7;0.3;0.3
74436;PMS7003;62868;52.360;30.424;2023-08-17T13:20:24;0.5;0.5;0.3
74436;PMS7003;62868;52.360;30.424;2023-08-17T13:25:37;1;0.7;0.7
74436;PMS7003;62868;52.360;30.424;2023-08-17T13:31:00;1.3;1;0.7
74436;PMS7003;62868;52.360;30.424;2023-08-17T13:35:34;1;1;1
74436;PMS7003;62868;52.360;30.424;2023-08-17T13:40:52;0.8;0.5;0.5
74436;PMS7003;62868;52.360;30.424;2023-08-17T13:45:56;0;0;0
74436;PMS7003;62868;52.360;30.424;2023-08-17T13:51:00;1;1;1
74436;PMS7003;62868;52.360;30.424;2023-08-17T13:55:24;0.3;0.3;0.3
74436;PMS7003;62868;52.360;30.424;2023-08-17T14:00:24;0.8;0.8;0.8
74436;PMS7003;62868;52.360;30.424;2023-08-17T14:06:00;1;1;1
74436;PMS7003;62868;52.360;30.424;2023-08-17T14:10:32;0.7;0.7;0.7
74436;PMS7003;62868;52.360;30.424;2023-08-17T14:15:34;0.7;0.7;0.3
74436;PMS7003;62868;52.360;30.424;2023-08-17T14:20:50;0.5;0.5;0.5
74436;PMS7003;62868;52.360;30.424;2023-08-17T14:25:52;4.7;4.3;3.7
74436;PMS7003;62868;52.360;30.424;2023-08-17T14:31:00;10.3;8.7;7.3
74436;PMS7003;62868;52.360;30.424;2023-08-17T14:35:39;5.7;4.7;4
74436;PMS7003;62868;52.360;30.424;2023-08-17T14:40:28;2.3;2;1.3
74436;PMS7003;62868;52.360;30.424;2023-08-17T14:45:24;1.3;1.3;0.7
74436;PMS7003;62868;52.360;30.424;2023-08-17T14:51:00;0.7;0.7;0.7
74436;PMS7003;62868;52.360;30.424;2023-08-17T14:55:50;1;1;1
74436;PMS7003;62868;52.360;30.424;2023-08-17T15:00:26;1;1;1
74436;PMS7003;62868;52.360;30.424;2023-08-17T15:06:00;1;1;0.7
74436;PMS7003;62868;52.360;30.424;2023-08-17T15:10:50;1;1;0.7
74436;PMS7003;62868;52.360;30.424;2023-08-17T15:15:24;1.8;1.8;1.5
74436;PMS7003;62868;52.360;30.424;2023-08-17T15:20:36;1;1;0.7
74436;PMS7003;62868;52.360;30.424;2023-08-17T15:26:00;0.3;0.3;0.3
74436;PMS7003;62868;52.360;30.424;2023-08-17T15:31:00;0.3;0.3;0.3
74436;PMS7003;62868;52.360;30.424;2023-08-17T15:35:52;0.5;0.3;0.3
74436;PMS7003;62868;52.360;30.424;2023-08-17T15:41:02;1;0.7;0.7
74436;PMS7003;62868;52.360;30.424;2023-08-17T15:45:50;0;0;0
74436;PMS7003;62868;52.360;30.424;2023-08-17T15:50:24;0.3;0.3;0.3
74436;PMS7003;62868;52.360;30.424;2023-08-17T15:55:52;3;3;2.3
74436;PMS7003;62868;52.360;30.424;2023-08-17T16:01:02;1.7;1.7;1
74436;PMS7003;62868;52.360;30.424;2023-08-17T16:05:46;2;1.7;1.3
74436;PMS7003;62868;52.360;30.424;2023-08-17T16:11:02;1.3;1;1
74436;PMS7003;62868;52.360;30.424;2023-08-17T16:16:04;1.5;1;1
74436;PMS7003;62868;52.360;30.424;2023-08-17T16:20:28;0;0;0
74436;PMS7003;62868;52.360;30.424;2023-08-17T16:25:40;1;1;0.7
74436;PMS7003;62868;52.360;30.424;2023-08-17T16:30:24;2.7;2.7;2.3
74436;PMS7003;62868;52.360;30.424;2023-08-17T16:35:48;2.8;2.5;2.3
74436;PMS7003;62868;52.360;30.424;2023-08-17T16:40:46;1;0.7;0.7
74436;PMS7003;62868;52.360;30.424;2023-08-17T16:46:04;0;0;0
74436;PMS7003;62868;52.360;30.424;2023-08-17T16:50:40;0.5;0.5;0
74436;PMS7003;62868;52.360;30.424;2023-08-17T16:55:32;0;0;0
74436;PMS7003;62868;52.360;30.424;2023-08-17T17:00:24;0;0;0
74436;PMS7003;62868;52.360;30.424;2023-08-17T17:05:36;0.3;0.3;0.3
74436;PMS7003;62868;52.360;30.424;2023-08-17T17:10:24;0;0;0
74436;PMS7003;62868;52.360;30.424;2023-08-17T17:15:38;0.3;0;0
74436;PMS7003;62868;52.360;30.424;2023-08-17T17:21:05;0.3;0.3;0.3
74436;PMS7003;62868;52.360;30.424;2023-08-17T17:25:52;1.3;1;0.7
74436;PMS7003;62868;52.360;30.424;2023-08-17T17:30:28;1.8;1.5;1.3
74436;PMS7003;62868;52.360;30.424;2023-08-17T17:35:46;1.3;1.3;1
74436;PMS7003;62868;52.360;30.424;2023-08-17T17:40:24;1.3;1;1
74436;PMS7003;62868;52.360;30.424;2023-08-17T17:45:38;1.7;1.7;1
74436;PMS7003;62868;52.360;30.424;2023-08-17T17:50:54;1.3;1.3;0.8
74436;PMS7003;62868;52.360;30.424;2023-08-17T17:56:04;1.7;1.3;1
74436;PMS7003;62868;52.360;30.424;2023-08-17T18:00:24;1.7;1.7;1
74436;PMS7003;62868;52.360;30.424;2023-08-17T18:05:38;1.7;1.3;1
74436;PMS7003;62868;52.360;30.424;2023-08-17T18:11:02;1.5;1.3;1
74436;PMS7003;62868;52.360;30.424;2023-08-17T18:15:36;1.3;0.7;0.3
74436;PMS7003;62868;52.360;30.424;2023-08-17T18:20:38;1;1;1
74436;PMS7003;62868;52.360;30.424;2023-08-17T18:25:38;0;0;0
74436;PMS7003;62868;52.360;30.424;2023-08-17T18:30:54;1.3;1;0.8
74436;PMS7003;62868;52.360;30.424;2023-08-17T18:35:24;0;0;0
74436;PMS7003;62868;52.360;30.424;2023-08-17T18:40:24;0.7;0.3;0.3
74436;PMS7003;62868;52.360;30.424;2023-08-17T18:46:04;0.5;0.3;0.3
74436;PMS7003;62868;52.360;30.424;2023-08-17T18:50:38;0.3;0.3;0.3
74436;PMS7003;62868;52.360;30.424;2023-08-17T18:56:04;0.3;0;0
74436;PMS7003;62868;52.360;30.424;2023-08-17T19:00:42;0.3;0.3;0.3
74436;PMS7003;62868;52.360;30.424;2023-08-17T19:05:38;0.3;0.3;0.3
74436;PMS7003;62868;52.360;30.424;2023-08-17T19:10:48;0.8;0.5;0.5
74436;PMS7003;62868;52.360;30.424;2023-08-17T19:15:54;0;0;0
74436;PMS7003;62868;52.360;30.424;2023-08-17T19:20:52;0.7;0.3;0
74436;PMS7003;62868;52.360;30.424;2023-08-17T19:25:52;0;0;0
74436;PMS7003;62868;52.360;30.424;2023-08-17T19:31:02;0.5;0.5;0
74436;PMS7003;62868;52.360;30.424;2023-08-17T19:35:52;0;0;0
74436;PMS7003;62868;52.360;30.424;2023-08-17T19:40:24;0.3;0.3;0.3
74436;PMS7003;62868;52.360;30.424;2023-08-17T19:45:36;0.7;0.7;0.3
74436;PMS7003;62868;52.360;30.424;2023-08-17T19:51:04;0.5;0.5;0
74436;PMS7003;62868;52.360;30.424;2023-08-17T19:56:02;0;0;0
74436;PMS7003;62868;52.360;30.424;2023-08-17T20:00:54;1.3;1;0.3
74436;PMS7003;62868;52.360;30.424;2023-08-17T20:06:02;0.3;0.3;0
74436;PMS7003;62868;52.360;30.424;2023-08-17T20:10:52;0.3;0.3;0.3
74436;PMS7003;62868;52.360;30.424;2023-08-17T20:15:32;0.3;0.3;0.3
74436;PMS7003;62868;52.360;30.424;2023-08-17T20:20:52;1;0.7;0.7
74436;PMS7003;62868;52.360;30.424;2023-08-17T20:26:02;0.8;0.5;0
74436;PMS7003;62868;52.360;30.424;2023-08-17T20:30:53;1.7;1;0.3
74436;PMS7003;62868;52.360;30.424;2023-08-17T20:35:52;1.3;1;0.7
74436;PMS7003;62868;52.360;30.424;2023-08-17T20:41:02;1.7;1.3;1
74436;PMS7003;62868;52.360;30.424;2023-08-17T20:45:24;1.3;1;1
74436;PMS7003;62868;52.360;30.424;2023-08-17T20:50:28;2.3;1.7;1
74436;PMS7003;62868;52.360;30.424;2023-08-17T20:55:24;0.7;0.7;0.7
74436;PMS7003;62868;52.360;30.424;2023-08-17T21:00:46;2.3;1.7;1.3
74436;PMS7003;62868;52.360;30.424;2023-08-17T21:06:04;1.8;1.8;0.5
74436;PMS7003;62868;52.360;30.424;2023-08-17T21:10:48;2.3;2;1
74436;PMS7003;62868;52.360;30.424;2023-08-17T21:15:42;1.7;0.7;0.7
74436;PMS7003;62868;52.360;30.424;2023-08-17T21:20:28;1.7;1;0.7
74436;PMS7003;62868;52.360;30.424;2023-08-17T21:26:04;1;0.5;0.5
74436;PMS7003;62868;52.360;30.424;2023-08-17T21:30:24;1.7;1;0.7
74436;PMS7003;62868;52.360;30.424;2023-08-17T21:35:46;1;0.7;0.7
74436;PMS7003;62868;52.360;30.424;2023-08-17T21:40:44;2.3;2;1.3
74436;PMS7003;62868;52.360;30.424;2023-08-17T21:46:02;1.3;1;0.3
74436;PMS7003;62868;52.360;30.424;2023-08-17T21:50:38;2;1.7;1.3
74436;PMS7003;62868;52.360;30.424;2023-08-17T21:55:28;1.3;1;0.7
74436;PMS7003;62868;52.360;30.424;2023-08-17T22:00:46;0.3;0.3;0.3
74436;PMS7003;62868;52.360;30.424;2023-08-17T22:05:36;0.5;0.5;0.5
74436;PMS7003;62868;52.360;30.424;2023-08-17T22:10:34;1;1;1
74436;PMS7003;62868;52.360;30.424;2023-08-17T22:15:50;0.3;0.3;0
74436;PMS7003;62868;52.360;30.424;2023-08-17T22:21:04;1.5;1.3;1.3
74436;PMS7003;62868;52.360;30.424;2023-08-17T22:25:24;0.7;0.7;0.7
74436;PMS7003;62868;52.360;30.424;2023-08-17T22:30:24;1.3;0.7;0.3
74436;PMS7003;62868;52.360;30.424;2023-08-17T22:36:02;1;0.7;0.3
74436;PMS7003;62868;52.360;30.424;2023-08-17T22:40:26;1.5;1.5;1.3
74436;PMS7003;62868;52.360;30.424;2023-08-17T22:45:38;0.3;0.3;0.3
74436;PMS7003;62868;52.360;30.424;2023-08-17T22:50:52;0.7;0.7;0.7
74436;PMS7003;62868;52.360;30.424;2023-08-17T22:55:54;1;0.3;0.3
74436;PMS7003;62868;52.360;30.424;2023-08-17T23:00:32;0.5;0.5;0
74436;PMS7003;62868;52.360;30.424;2023-08-17T23:05:24;0.3;0;0
74436;PMS7003;62868;52.360;30.424;2023-08-17T23:11:00;0;0;0
74436;PMS7003;62868;52.360;30.424;2023-08-17T23:15:58;0.7;0.3;0.3
74436;PMS7003;62868;52.360;30.424;2023-08-17T23:21:02;0.8;0.5;0.3
74436;PMS7003;62868;52.360;30.424;2023-08-17T23:25:42;0.3;0.3;0
74436;PMS7003;62868;52.360;30.424;2023-08-17T23:31:04;0.7;0.7;0.3
74436;PMS7003;62868;52.360;30.424;2023-08-17T23:35:28;0.7;0.3;0.3
74436;PMS7003;62868;52.360;30.424;2023-08-17T23:40:24;0.5;0.5;0.3
74436;PMS7003;62868;52.360;30.424;2023-08-17T23:45:26;0.3;0.3;0.3
74436;PMS7003;62868;52.360;30.424;2023-08-17T23:50:52;0;0;0
74436;PMS7003;62868;52.360;30.424;2023-08-17T23:56:04;0;0;0
